ATENÇÃO
Ajude a manter GRÁTIS o conteúdo do Apolo11. Colabore conosco. Clique Aqui
Meteógrafos Informações Meteorológicas em tempo real
Aeroporto de Congonhas
15-04-2021 21:56 BRT (UTC-3)

Temperatura atual: 17 graus 62 F    Umidade relativa: 88 %
Velocidade do vento: 07 nós 12 Km/h    Direção: 150 graus SSE
Ajuste do altímetro ..: 1021 HPA
Visibilidade: Ótima    Tempo presente: Poucas nuvens esparsas

Observação
Nuvens esparsas a 1300 Pés.
Data Hora BRTTempo°CUmidadePressãoVentoVisib.
15/04 - 20:58   Parcialmente Nublado 18° 88% 1020 Sul-sudeste/18 km/h OK
15/04 - 20:56   Parcialmente Nublado 18° 88% 1020 Sul-sudeste/18 km/h OK
15/04 - 19:56   Céu Encoberto 19° 82% 1020 Sul-sudeste/18 km/h OK
15/04 - 18:56   Poucas nuvens esparsas 19° 82% 1020 Sul-sudeste/18 km/h OK
15/04 - 17:56   Parcialmente Nublado 20° 77% 1019 Sul-sudeste/19 km/h OK
15/04 - 16:56   Poucas nuvens esparsas 22° 68% 1019 Sul-sudeste/19 km/h OK
15/04 - 15:56   Parcialmente Nublado 24° 57% 1019 Leste/10 km/h 9999
15/04 - 14:56   Poucas nuvens esparsas 24° 57% 1019 Leste/12 km/h 9999
15/04 - 13:56   Não Disponível 24° 57% 1020 Este-nordeste/10 km/h OK
15/04 - 12:56   Céu Limpo 22° 60% 1021 Este-sudeste/16 km/h OK
15/04 - 11:56   Céu Limpo 21° 64% 1022 Este-nordeste/16 km/h OK
15/04 - 10:58   Céu Limpo 20° 68% 1023 Leste/14 km/h OK
15/04 - 10:56   Céu Limpo 20° 68% 1023 Leste/14 km/h OK
15/04 - 09:58   Poucas nuvens esparsas 19° 72% 1022 Leste/12 km/h 9999
15/04 - 09:56   Poucas nuvens esparsas 19° 72% 1022 Leste/12 km/h 9999
15/04 - 08:56   Parcialmente Nublado 18° 77% 1022 Leste/16 km/h 9999
15/04 - 07:56   Parcialmente Nublado 18° 72% 1021 Leste/10 km/h OK
15/04 - 06:58   Céu Encoberto 18° 77% 1021 Leste/12 km/h OK
15/04 - 05:56   Céu Encoberto 17° 88% 1021 Este-sudeste/10 km/h 9999
15/04 - 04:58   Parcialmente Nublado 17° 82% 1020 Sudeste/12 km/h 9999
15/04 - 04:56   Parcialmente Nublado 17° 82% 1020 Sudeste/12 km/h 9999
15/04 - 03:58   Poucas nuvens esparsas 17° 82% 1020 Este-sudeste/12 km/h OK
15/04 - 03:56   Poucas nuvens esparsas 17° 82% 1020 Este-sudeste/12 km/h OK
15/04 - 02:56   Parcialmente Nublado 17° 82% 1021 Sudeste/14 km/h OK

Termo de Uso  |   Links Úteis  |   Imprensa  |  Anuncie  |  Fale Conosco  |  Versão Celular  |   Política de Privacidade

Apolo11.com - Todos os direitos reservados - 2000 - 2021

"Democracia é a procura de soluções aproximadas para problemas insolúveis" - Reinhold Niebuhr -